createdAt,value
2019-04-21T00:00:25.964Z,12.37
2019-04-21T00:03:00.665Z,12.23
2019-04-21T00:05:53.274Z,12.26
2019-04-21T00:08:39.538Z,12.23
2019-04-21T00:10:56.544Z,12.25
2019-04-21T00:13:25.337Z,12.15
2019-04-21T00:15:48.719Z,12.11
2019-04-21T00:18:19.089Z,12.04
2019-04-21T00:20:54.868Z,11.96
2019-04-21T00:23:41.281Z,11.90
2019-04-21T00:26:03.018Z,11.95
2019-04-21T00:28:53.762Z,11.93
2019-04-21T00:31:15.303Z,11.80
2019-04-21T00:33:37.087Z,11.73
2019-04-21T00:36:13.327Z,11.57
2019-04-21T00:39:08.105Z,11.59
2019-04-21T00:41:29.513Z,11.58
2019-04-21T00:43:58.177Z,11.51
2019-04-21T00:46:31.292Z,11.50
2019-04-21T00:49:09.520Z,11.38
2019-04-21T00:51:54.164Z,11.39
2019-04-21T00:54:27.764Z,11.21
2019-04-21T00:56:56.184Z,11.12
2019-04-21T00:59:25.823Z,11.05
2019-04-21T01:01:55.483Z,10.89
2019-04-21T01:04:30.713Z,10.81
2019-04-21T01:07:03.824Z,10.81
2019-04-21T01:09:29.049Z,10.78
2019-04-21T01:12:07.834Z,10.69
2019-04-21T01:14:41.958Z,10.65
2019-04-21T01:17:12.900Z,10.47
2019-04-21T01:19:39.784Z,10.45
2019-04-21T01:21:56.773Z,10.42
2019-04-21T01:24:33.227Z,10.43
2019-04-21T01:27:11.149Z,10.42
2019-04-21T01:29:58.328Z,10.32
2019-04-21T01:32:31.130Z,10.30
2019-04-21T01:35:00.747Z,10.20
2019-04-21T01:37:41.146Z,10.09
2019-04-21T01:40:14.495Z,9.99
2019-04-21T01:42:32.776Z,9.93
2019-04-21T01:45:14.656Z,9.91
2019-04-21T01:47:46.197Z,9.79
2019-04-21T01:50:15.129Z,9.89
2019-04-21T01:52:56.021Z,9.98
2019-04-21T01:55:45.405Z,9.93
2019-04-21T01:58:13.794Z,9.89
2019-04-21T02:00:54.332Z,9.75
2019-04-21T02:03:48.713Z,9.72
2019-04-21T02:06:07.127Z,9.75
2019-04-21T02:08:34.655Z,9.83
2019-04-21T02:11:12.558Z,9.80
2019-04-21T02:13:48.952Z,9.79
2019-04-21T02:16:13.295Z,9.75
2019-04-21T02:18:45.367Z,9.68
2019-04-21T02:21:04.377Z,9.57
2019-04-21T02:23:54.045Z,9.52
2019-04-21T02:26:22.634Z,9.56
2019-04-21T02:31:36.206Z,9.45
2019-04-21T02:34:09.301Z,9.28
2019-04-21T02:39:19.248Z,9.14
2019-04-21T02:41:47.397Z,8.97
2019-04-21T02:44:39.368Z,8.89
2019-04-21T02:47:00.540Z,8.79
2019-04-21T02:49:35.021Z,8.72
2019-04-21T02:52:01.316Z,8.70
2019-04-21T02:57:12.705Z,8.84
2019-04-21T02:59:42.482Z,8.82
2019-04-21T03:04:59.231Z,8.56
2019-04-21T03:07:49.267Z,8.57
2019-04-21T03:09:57.936Z,8.68
2019-04-21T03:12:32.075Z,8.79
2019-04-21T03:15:18.239Z,8.77
2019-04-21T03:20:18.995Z,8.52
2019-04-21T03:23:09.373Z,8.42
2019-04-21T03:25:43.245Z,8.30
2019-04-21T03:30:42.738Z,8.00
2019-04-21T03:38:03.041Z,7.87
2019-04-21T03:40:32.216Z,7.96
2019-04-21T03:43:12.513Z,7.91
2019-04-21T03:45:42.778Z,7.85
2019-04-21T03:48:21.858Z,7.84
2019-04-21T03:50:52.485Z,7.86
2019-04-21T03:53:25.028Z,7.93
2019-04-21T03:58:34.719Z,7.74
2019-04-21T04:07:04.026Z,7.67
2019-04-21T04:09:37.210Z,7.73
2019-04-21T04:12:05.265Z,7.73
2019-04-21T04:22:20.858Z,7.70
2019-04-21T04:24:57.530Z,7.75
2019-04-21T04:27:53.484Z,7.63
2019-04-21T04:29:59.434Z,7.57
2019-04-21T04:32:28.394Z,7.64
2019-04-21T04:35:05.597Z,7.78
2019-04-21T04:37:36.254Z,7.88
2019-04-21T04:40:20.940Z,8.02
2019-04-21T04:42:56.466Z,8.19
2019-04-21T04:47:59.171Z,8.05
2019-04-21T04:50:43.608Z,8.13
2019-04-21T04:53:03.572Z,8.24
2019-04-21T04:55:39.014Z,8.25
2019-04-21T04:58:29.633Z,8.30
2019-04-21T05:00:43.123Z,8.23
2019-04-21T05:03:29.621Z,8.40
2019-04-21T05:11:40.276Z,8.61
2019-04-21T05:16:41.120Z,8.51
2019-04-21T05:24:18.856Z,8.53
2019-04-21T05:26:27.440Z,8.71
2019-04-21T05:28:58.884Z,8.84
2019-04-21T05:31:56.193Z,9.02
2019-04-21T05:34:31.555Z,9.22
2019-04-21T05:37:14.275Z,9.44
2019-04-21T05:39:46.830Z,9.65
2019-04-21T05:42:11.035Z,9.74
2019-04-21T05:47:34.926Z,9.91
2019-04-21T05:50:02.417Z,9.91
2019-04-21T05:52:35.285Z,10.12
2019-04-21T05:55:18.174Z,10.08
2019-04-21T05:57:45.814Z,10.18
2019-04-21T06:00:23.612Z,10.26
2019-04-21T06:02:53.541Z,10.34
2019-04-21T06:05:28.593Z,10.71
2019-04-21T06:08:03.130Z,10.88
2019-04-21T06:10:36.196Z,11.08
2019-04-21T06:13:12.917Z,11.13
2019-04-21T06:15:47.190Z,10.95
2019-04-21T06:18:21.849Z,11.11
2019-04-21T06:20:47.731Z,10.98
2019-04-21T06:23:20.903Z,11.18
2019-04-21T06:28:28.399Z,11.61
2019-04-21T06:31:09.228Z,11.63
2019-04-21T06:36:24.062Z,12.00
2019-04-21T06:39:01.976Z,12.16
2019-04-21T06:41:29.678Z,12.19
2019-04-21T06:51:32.375Z,12.17
2019-04-21T06:54:10.007Z,12.31
2019-04-21T06:56:48.381Z,12.45
2019-04-21T06:59:09.889Z,12.49
2019-04-21T07:01:54.734Z,12.68
2019-04-21T07:04:25.252Z,12.76
2019-04-21T07:09:27.209Z,13.05
2019-04-21T07:11:56.277Z,13.19
2019-04-21T07:14:31.982Z,13.17
2019-04-21T07:17:08.021Z,12.98
2019-04-21T07:19:40.999Z,13.09
2019-04-21T07:22:13.564Z,13.42
2019-04-21T07:24:42.898Z,13.35
2019-04-21T07:27:18.972Z,13.87
2019-04-21T07:29:55.073Z,13.97
2019-04-21T07:32:20.687Z,13.82
2019-04-21T07:34:58.887Z,13.99
2019-04-21T07:37:30.643Z,14.03
2019-04-21T07:39:54.840Z,14.08
2019-04-21T07:42:29.295Z,14.34
2019-04-21T07:44:58.863Z,14.48
2019-04-21T07:47:46.067Z,14.51
2019-04-21T07:50:31.745Z,14.81
2019-04-21T07:53:19.514Z,14.78
2019-04-21T07:58:14.588Z,15.25
2019-04-21T08:00:51.350Z,15.22
2019-04-21T08:03:19.308Z,15.52
2019-04-21T08:05:53.012Z,15.94
2019-04-21T08:08:23.416Z,15.88
2019-04-21T08:10:57.362Z,16.09
2019-04-21T08:13:39.911Z,16.33
2019-04-21T08:16:09.416Z,16.69
2019-04-21T08:21:05.783Z,17.30
2019-04-21T08:23:55.218Z,17.94
2019-04-21T08:26:13.825Z,18.01
2019-04-21T08:28:49.451Z,18.29
2019-04-21T08:31:24.072Z,18.87
2019-04-21T08:34:01.689Z,19.71
2019-04-21T08:38:59.697Z,22.00
2019-04-21T08:41:31.609Z,21.76
2019-04-21T08:44:02.233Z,22.34
2019-04-21T08:46:38.702Z,22.76
2019-04-21T08:49:09.056Z,22.90
2019-04-21T08:51:50.414Z,23.66
2019-04-21T08:57:08.092Z,24.65
2019-04-21T08:59:44.474Z,24.68
2019-04-21T09:02:24.835Z,24.11
2019-04-21T09:04:52.479Z,24.56
2019-04-21T09:07:33.101Z,23.75
2019-04-21T09:09:57.531Z,23.73
2019-04-21T09:12:29.489Z,24.09
2019-04-21T09:15:01.557Z,24.09
2019-04-21T09:17:31.539Z,24.11
2019-04-21T09:20:17.030Z,24.19
2019-04-21T09:22:47.793Z,25.18
2019-04-21T09:25:29.148Z,26.12
2019-04-21T09:27:56.663Z,25.44
2019-04-21T09:30:13.019Z,24.28
2019-04-21T09:32:44.577Z,24.36
2019-04-21T09:35:17.345Z,24.08
2019-04-21T09:37:58.390Z,23.69
2019-04-21T09:40:31.322Z,23.95
2019-04-21T09:43:01.074Z,23.73
2019-04-21T09:45:28.592Z,23.67
2019-04-21T09:48:06.094Z,24.31
2019-04-21T09:50:34.505Z,24.60
2019-04-21T09:53:14.424Z,24.63
2019-04-21T09:55:46.572Z,25.34
2019-04-21T09:58:21.866Z,26.18
2019-04-21T10:00:56.635Z,26.58
2019-04-21T10:03:17.548Z,26.90
2019-04-21T10:05:48.145Z,26.11
2019-04-21T10:08:20.643Z,24.82
2019-04-21T10:10:51.564Z,24.47
2019-04-21T10:13:23.059Z,24.25
2019-04-21T10:16:01.222Z,24.12
2019-04-21T10:18:31.988Z,24.68
2019-04-21T10:21:03.229Z,25.10
2019-04-21T10:23:35.876Z,24.64
2019-04-21T10:26:06.824Z,24.85
2019-04-21T10:28:37.586Z,26.06
2019-04-21T10:31:09.021Z,26.78
2019-04-21T10:33:42.071Z,26.25
2019-04-21T10:36:13.103Z,24.67
2019-04-21T10:38:48.819Z,25.22
2019-04-21T10:41:17.290Z,24.80
2019-04-21T10:43:49.321Z,24.37
2019-04-21T10:46:22.390Z,24.04
2019-04-21T10:48:54.810Z,24.12
2019-04-21T10:51:25.740Z,24.52
2019-04-21T10:53:57.943Z,25.50
2019-04-21T10:56:34.374Z,26.43
2019-04-21T10:59:02.424Z,27.30
2019-04-21T11:01:34.753Z,28.39
2019-04-21T11:04:15.972Z,27.95
2019-04-21T11:06:39.887Z,26.67
2019-04-21T11:09:11.449Z,25.94
2019-04-21T11:11:45.973Z,25.43
2019-04-21T11:14:15.502Z,25.86
2019-04-21T11:16:49.054Z,26.50
2019-04-21T11:19:20.054Z,25.34
2019-04-21T11:21:51.005Z,24.70
2019-04-21T11:24:22.696Z,24.47
2019-04-21T11:26:53.930Z,25.37
2019-04-21T11:29:26.164Z,25.92
2019-04-21T11:31:57.285Z,25.58
2019-04-21T11:34:29.263Z,25.84
2019-04-21T11:37:00.061Z,24.93
2019-04-21T11:39:39.598Z,25.40
2019-04-21T11:42:05.941Z,25.96
2019-04-21T11:44:37.343Z,26.57
2019-04-21T11:47:10.282Z,26.58
2019-04-21T11:49:41.261Z,25.38
2019-04-21T11:52:13.283Z,25.17
2019-04-21T11:54:46.737Z,25.12
2019-04-21T11:57:24.014Z,25.24
2019-04-21T11:59:51.317Z,25.06
2019-04-21T12:02:23.561Z,24.65
2019-04-21T12:04:54.232Z,25.33
2019-04-21T12:07:25.183Z,24.91
2019-04-21T12:09:55.858Z,25.18
2019-04-21T12:12:27.494Z,25.45
2019-04-21T12:14:59.836Z,25.09
2019-04-21T12:17:31.985Z,24.21
2019-04-21T12:20:03.273Z,23.63
2019-04-21T12:22:35.660Z,22.67
2019-04-21T12:25:09.486Z,22.43
2019-04-21T12:27:41.592Z,22.49
2019-04-21T12:30:15.549Z,22.30
2019-04-21T12:32:51.937Z,22.16
2019-04-21T12:35:23.853Z,22.04
2019-04-21T12:37:55.051Z,22.00
2019-04-21T12:40:26.936Z,22.06
2019-04-21T12:42:58.791Z,22.18
2019-04-21T12:45:29.582Z,22.44
2019-04-21T12:48:02.049Z,22.80
2019-04-21T12:50:34.093Z,23.18
2019-04-21T12:53:05.470Z,23.29
2019-04-21T12:55:40.557Z,22.94
2019-04-21T12:58:08.831Z,22.79
2019-04-21T13:00:40.856Z,22.63
2019-04-21T13:03:12.037Z,22.34
2019-04-21T13:05:43.883Z,22.27
2019-04-21T13:08:15.448Z,22.27
2019-04-21T13:10:46.450Z,22.18
2019-04-21T13:13:17.664Z,21.60
2019-04-21T13:15:49.419Z,21.60
2019-04-21T13:18:20.564Z,22.12
2019-04-21T13:20:51.844Z,22.23
2019-04-21T13:23:23.213Z,22.13
2019-04-21T13:25:54.263Z,22.23
2019-04-21T13:28:25.348Z,22.17
2019-04-21T13:30:56.406Z,22.27
2019-04-21T13:33:27.175Z,22.14
2019-04-21T13:35:59.268Z,22.21
2019-04-21T13:38:37.763Z,22.46
2019-04-21T13:41:29.709Z,22.47
2019-04-21T13:43:50.941Z,22.48
2019-04-21T13:46:23.029Z,22.32
2019-04-21T13:48:54.803Z,22.48
2019-04-21T13:51:26.978Z,22.47
2019-04-21T13:53:58.046Z,22.45
2019-04-21T13:56:28.932Z,22.06
2019-04-21T13:59:00.139Z,22.04
2019-04-21T14:01:31.794Z,22.09
2019-04-21T14:04:02.781Z,21.98
2019-04-21T14:06:34.314Z,21.80
2019-04-21T14:09:10.413Z,21.71
2019-04-21T14:11:43.448Z,21.84
2019-04-21T14:14:14.743Z,21.73
2019-04-21T14:16:45.765Z,21.76
2019-04-21T14:19:17.312Z,21.87
2019-04-21T14:21:49.824Z,22.02
2019-04-21T14:24:20.743Z,22.07
2019-04-21T14:26:52.190Z,22.31
2019-04-21T14:29:23.817Z,22.17
2019-04-21T14:31:56.047Z,22.07
2019-04-21T14:34:28.033Z,21.99
2019-04-21T14:36:59.075Z,21.86
2019-04-21T14:39:30.388Z,21.72
2019-04-21T14:42:02.272Z,21.75
2019-04-21T14:44:33.283Z,21.80
2019-04-21T14:47:15.508Z,21.94
2019-04-21T14:50:07.371Z,21.89
2019-04-21T14:52:39.199Z,21.68
2019-04-21T14:57:54.906Z,21.85
2019-04-21T15:00:31.277Z,21.89
2019-04-21T15:03:03.619Z,21.82
2019-04-21T15:05:35.553Z,21.79
2019-04-21T15:08:06.890Z,21.89
2019-04-21T15:10:38.917Z,21.89
2019-04-21T15:13:11.888Z,21.88
2019-04-21T15:15:43.708Z,21.83
2019-04-21T15:18:15.200Z,21.77
2019-04-21T15:20:48.636Z,21.81
2019-04-21T15:23:20.390Z,21.69
2019-04-21T15:25:52.410Z,21.65
2019-04-21T15:28:23.665Z,21.60
2019-04-21T15:30:54.847Z,21.82
2019-04-21T15:33:26.573Z,21.74
2019-04-21T15:35:57.666Z,21.50
2019-04-21T15:38:29.747Z,21.57
2019-04-21T15:41:04.493Z,21.55
2019-04-21T15:43:33.546Z,21.67
2019-04-21T15:46:04.719Z,21.57
2019-04-21T15:48:37.076Z,21.68
2019-04-21T15:51:09.323Z,21.67
2019-04-21T15:53:43.720Z,21.61
2019-04-21T15:56:33.518Z,21.70
2019-04-21T15:59:06.498Z,21.80
2019-04-21T16:01:39.198Z,21.67
2019-04-21T16:04:10.670Z,21.61
2019-04-21T16:06:41.681Z,21.37
2019-04-21T16:09:14.951Z,21.29
2019-04-21T16:11:46.135Z,21.49
2019-04-21T16:14:18.560Z,21.71
2019-04-21T16:16:49.704Z,21.58
2019-04-21T16:19:20.366Z,21.54
2019-04-21T16:21:52.516Z,21.52
2019-04-21T16:24:23.591Z,21.54
2019-04-21T16:26:54.355Z,21.45
2019-04-21T16:29:25.330Z,21.43
2019-04-21T16:31:57.344Z,21.37
2019-04-21T16:34:39.026Z,21.32
2019-04-21T16:37:01.520Z,21.32
2019-04-21T16:39:33.540Z,21.22
2019-04-21T16:42:07.057Z,21.04
2019-04-21T16:44:38.764Z,21.05
2019-04-21T16:47:09.909Z,21.02
2019-04-21T16:49:40.681Z,21.08
2019-04-21T16:52:14.105Z,21.04
2019-04-21T16:54:47.738Z,21.05
2019-04-21T16:57:23.858Z,21.00
2019-04-21T16:59:56.844Z,21.00
2019-04-21T17:02:28.343Z,20.89
2019-04-21T17:05:00.442Z,20.80
2019-04-21T17:07:32.394Z,20.76
2019-04-21T17:10:04.527Z,20.71
2019-04-21T17:12:35.618Z,20.72
2019-04-21T17:15:27.426Z,20.71
2019-04-21T17:18:00.768Z,20.66
2019-04-21T17:20:28.856Z,20.62
2019-04-21T17:22:46.191Z,20.51
2019-04-21T17:25:18.226Z,20.44
2019-04-21T17:27:51.340Z,20.42
2019-04-21T17:30:22.604Z,20.37
2019-04-21T17:32:54.139Z,20.26
2019-04-21T17:35:27.008Z,20.33
2019-04-21T17:37:58.412Z,20.29
2019-04-21T17:40:29.942Z,20.29
2019-04-21T17:43:05.506Z,20.19
2019-04-21T17:45:33.616Z,20.22
2019-04-21T17:48:10.166Z,20.14
2019-04-21T17:50:37.671Z,20.04
2019-04-21T17:53:14.144Z,19.96
2019-04-21T17:56:06.356Z,19.94
2019-04-21T17:58:34.163Z,19.87
2019-04-21T18:01:32.157Z,19.78
2019-04-21T18:06:14.378Z,19.55
2019-04-21T18:08:54.826Z,19.49
2019-04-21T18:11:18.117Z,19.44
2019-04-21T18:13:41.913Z,19.33
2019-04-21T18:16:22.695Z,19.23
2019-04-21T18:18:46.630Z,18.98
2019-04-21T18:21:19.087Z,18.99
2019-04-21T18:24:03.011Z,18.92
2019-04-21T18:26:35.688Z,18.85
2019-04-21T18:28:59.152Z,18.78
2019-04-21T18:31:36.467Z,18.68
2019-04-21T18:34:12.710Z,18.57
2019-04-21T18:37:05.529Z,18.50
2019-04-21T18:39:57.463Z,18.40
2019-04-21T18:42:37.165Z,18.28
2019-04-21T18:45:34.095Z,18.21
2019-04-21T18:48:01.635Z,18.11
2019-04-21T18:50:43.313Z,18.01
2019-04-21T18:53:41.177Z,17.90
2019-04-21T18:56:03.909Z,17.78
2019-04-21T18:58:30.805Z,17.70
2019-04-21T19:01:09.312Z,17.65
2019-04-21T19:03:41.108Z,17.50
2019-04-21T19:06:12.748Z,17.42
2019-04-21T19:08:59.251Z,17.34
2019-04-21T19:11:28.049Z,17.29
2019-04-21T19:14:30.372Z,17.18
2019-04-21T19:21:55.489Z,17.00
2019-04-21T19:24:29.478Z,16.92
2019-04-21T19:29:54.092Z,16.83
2019-04-21T19:32:05.680Z,16.75
2019-04-21T19:34:25.822Z,16.67
2019-04-21T19:36:59.285Z,16.65
2019-04-21T19:39:39.044Z,16.57
2019-04-21T19:42:07.165Z,16.53
2019-04-21T19:44:47.291Z,16.43
2019-04-21T19:47:22.862Z,16.38
2019-04-21T19:49:58.307Z,16.28
2019-04-21T19:52:15.398Z,16.20
2019-04-21T19:54:43.292Z,16.16
2019-04-21T19:57:11.222Z,16.07
2019-04-21T19:59:47.966Z,15.96
2019-04-21T20:02:16.373Z,15.90
2019-04-21T20:04:54.143Z,15.94
2019-04-21T20:07:34.266Z,15.93
2019-04-21T20:10:18.718Z,15.90
2019-04-21T20:13:02.929Z,15.86
2019-04-21T20:15:28.436Z,15.70
2019-04-21T20:17:48.348Z,15.61
2019-04-21T20:20:03.977Z,15.56
2019-04-21T20:22:40.376Z,15.47
2019-04-21T20:25:17.495Z,15.41
2019-04-21T20:27:58.291Z,15.34
2019-04-21T20:30:41.087Z,15.27
2019-04-21T20:33:20.195Z,15.27
2019-04-21T20:38:09.690Z,14.98
2019-04-21T20:40:39.700Z,15.01
2019-04-21T20:43:25.197Z,15.01
2019-04-21T20:45:54.110Z,14.94
2019-04-21T20:48:17.968Z,14.82
2019-04-21T20:51:01.935Z,14.84
2019-04-21T20:53:25.989Z,14.87
2019-04-21T20:55:58.399Z,14.83
2019-04-21T20:58:37.591Z,14.80
2019-04-21T21:01:33.018Z,14.95
2019-04-21T21:03:46.346Z,14.75
2019-04-21T21:06:08.115Z,14.75
2019-04-21T21:08:45.421Z,14.68
2019-04-21T21:11:22.254Z,14.63
2019-04-21T21:13:52.228Z,14.70
2019-04-21T21:16:35.105Z,14.61
2019-04-21T21:19:18.458Z,14.60
2019-04-21T21:21:25.037Z,14.52
2019-04-21T21:24:00.314Z,14.36
2019-04-21T21:26:31.311Z,14.28
2019-04-21T21:28:58.882Z,14.20
2019-04-21T21:31:41.471Z,14.13
2019-04-21T21:34:16.528Z,14.09
2019-04-21T21:36:50.674Z,14.09
2019-04-21T21:39:18.386Z,14.00
2019-04-21T21:41:44.134Z,13.95
2019-04-21T21:44:14.472Z,13.75
2019-04-21T21:46:53.818Z,13.72
2019-04-21T21:49:29.396Z,13.61
2019-04-21T21:51:59.219Z,13.56
2019-04-21T21:54:18.234Z,13.44
2019-04-21T21:56:50.165Z,13.36
2019-04-21T21:59:25.718Z,13.26
2019-04-21T22:01:54.871Z,13.21
2019-04-21T22:04:28.833Z,13.08
2019-04-21T22:07:04.520Z,13.00
2019-04-21T22:09:32.378Z,12.92
2019-04-21T22:12:06.357Z,12.87
2019-04-21T22:14:41.703Z,12.80
2019-04-21T22:17:24.750Z,12.82
2019-04-21T22:20:03.862Z,12.65
2019-04-21T22:22:28.553Z,12.63
2019-04-21T22:24:56.657Z,12.56
2019-04-21T22:27:18.938Z,12.50
2019-04-21T22:29:54.535Z,12.41
2019-04-21T22:32:27.538Z,12.37
2019-04-21T22:34:59.785Z,12.37
2019-04-21T22:37:41.441Z,12.33
2019-04-21T22:40:13.699Z,12.16
2019-04-21T22:42:44.372Z,12.17
2019-04-21T22:45:09.331Z,12.11
2019-04-21T22:47:42.676Z,11.94
2019-04-21T22:50:26.625Z,11.92
2019-04-21T22:53:02.094Z,11.88
2019-04-21T22:55:33.440Z,11.81
2019-04-21T22:58:03.908Z,11.74
2019-04-21T23:00:45.598Z,11.73
2019-04-21T23:03:17.343Z,11.72
2019-04-21T23:05:45.152Z,11.75
2019-04-21T23:08:17.174Z,11.68
2019-04-21T23:10:57.036Z,11.67
2019-04-21T23:13:23.473Z,11.64
2019-04-21T23:15:57.201Z,11.53
2019-04-21T23:18:39.922Z,11.42
2019-04-21T23:21:14.700Z,11.42
2019-04-21T23:23:51.763Z,11.44
2019-04-21T23:26:23.696Z,11.39
2019-04-21T23:29:00.363Z,11.41
2019-04-21T23:31:32.404Z,11.55
2019-04-21T23:33:42.030Z,11.37
2019-04-21T23:36:17.690Z,11.13
2019-04-21T23:38:49.407Z,11.07
2019-04-21T23:41:17.640Z,11.00
2019-04-21T23:43:53.782Z,11.02
2019-04-21T23:46:27.762Z,10.90
2019-04-21T23:49:07.444Z,10.81
2019-04-21T23:51:37.761Z,10.72
2019-04-21T23:53:59.524Z,10.65
2019-04-21T23:56:37.108Z,10.69
2019-04-21T23:59:06.715Z,10.65
